Time;durP1;ratioP1;P1;durP2;ratioP2;P2;SDS_P1;SDS_P2;PMS_P1;PMS_P2;Temp;Humidity;BMP_temperature;BMP_pressure;BME280_temperature;BME280_humidity;BME280_pressure;Samples;Min_cycle;Max_cycle;Signal;HPM_P1;HPM_P2
2022/11/11 00:02:07;;;;;;;2.15;1.30;;;14.80;56.60;;;13.70;57.75;102449.41;12188536;19;20015;-90
2022/11/11 00:06:27;;;;;;;2.63;1.38;;;14.70;56.60;;;13.65;57.74;102443.47;12183008;19;20010;-91
2022/11/11 00:10:47;;;;;;;2.35;1.27;;;14.70;56.60;;;13.56;57.94;102436.00;12190659;19;20316;-90
2022/11/11 00:15:08;;;;;;;2.17;1.52;;;14.70;56.60;;;13.66;57.71;102460.97;12188468;19;20530;-90
2022/11/11 00:29:04;;;;;;;3.85;1.52;;;14.50;56.70;;;13.55;57.96;102463.13;12187415;19;20019;-90
2022/11/11 00:33:24;;;;;;;2.05;1.23;;;14.40;56.70;;;13.49;57.76;102474.72;12186250;19;20014;-90
2022/11/11 00:37:47;;;;;;;5.20;3.10;;;14.40;56.70;;;13.44;57.87;102492.44;12189259;19;20316;-90
2022/11/11 00:42:08;;;;;;;4.38;1.90;;;14.30;56.80;;;13.27;57.79;102469.47;12187531;19;20018;-90
2022/11/11 00:51:07;;;;;;;6.32;1.50;;;14.20;56.80;;;13.26;57.92;102486.13;12186215;19;20891;-90
2022/11/11 00:55:27;;;;;;;2.25;2.03;;;14.20;56.90;;;13.22;57.84;102481.88;12183158;19;20010;-90
2022/11/11 00:59:48;;;;;;;1.85;1.13;;;14.20;56.90;;;13.15;57.88;102469.03;12189026;19;20755;-90
2022/11/11 01:04:08;;;;;;;1.80;1.33;;;14.10;56.90;;;13.09;57.88;102459.63;12189443;19;20019;-91
2022/11/11 01:08:31;;;;;;;1.60;1.35;;;14.10;56.90;;;13.10;57.97;102460.53;12190564;19;20276;-90
2022/11/11 01:13:10;;;;;;;2.28;1.83;;;14.00;56.90;;;12.56;57.85;102387.34;12188180;19;20577;-90
2022/11/11 01:17:30;;;;;;;1.27;1.17;;;14.10;56.90;;;13.14;57.91;102468.19;12186132;19;20011;-90
2022/11/11 01:21:50;;;;;;;3.95;1.50;;;14.00;56.90;;;13.11;57.90;102465.69;12187616;19;20015;-90
2022/11/11 01:26:20;;;;;;;3.88;1.70;;;14.00;56.90;;;12.99;58.06;102447.81;12182871;19;20040;-90
2022/11/11 01:30:40;;;;;;;2.83;1.40;;;13.90;56.90;;;12.84;57.99;102428.25;12184315;19;20106;-90
2022/11/11 01:35:00;;;;;;;2.90;1.67;;;13.90;56.90;;;12.95;58.04;102456.69;12184173;19;20434;-90
2022/11/11 01:39:21;;;;;;;1.38;1.27;;;13.90;57.00;;;12.83;58.04;102447.53;12187000;19;20014;-90
2022/11/11 01:43:41;;;;;;;3.33;1.27;;;13.80;57.00;;;12.83;58.19;102450.16;12185257;19;20917;-89
2022/11/11 01:52:44;;;;;;;2.25;1.58;;;13.80;57.20;;;12.75;58.06;102455.66;12199895;19;20014;-90
2022/11/11 01:57:16;;;;;;;2.70;1.65;;;13.70;57.10;;;12.75;58.19;102471.41;12201178;19;20026;-90
2022/11/11 02:01:38;;;;;;;4.43;1.38;;;13.70;57.20;;;12.73;58.19;102454.00;12197847;19;21168;-90
2022/11/11 02:05:59;;;;;;;6.18;1.52;;;13.70;57.20;;;12.76;58.05;102464.38;12198429;19;20030;-90
2022/11/11 02:10:23;;;;;;;3.17;1.80;;;13.70;57.20;;;12.69;58.21;102460.25;12198264;19;20083;-90
2022/11/11 02:14:50;;;;;;;2.28;1.50;;;13.60;57.20;;;12.61;58.29;102471.06;12196698;19;20010;-90
2022/11/11 02:19:11;;;;;;;1.55;1.45;;;13.60;57.20;;;12.61;58.01;102477.13;12198107;19;20375;-90
2022/11/11 02:23:42;;;;;;;2.35;1.65;;;13.60;57.20;;;12.51;58.15;102475.75;12197304;19;20006;-90
2022/11/11 02:28:06;;;;;;;4.68;2.05;;;13.60;57.20;;;12.60;58.26;102498.16;12196550;19;20415;-90
2022/11/11 02:32:27;;;;;;;2.00;1.65;;;13.60;57.20;;;12.28;58.17;102444.25;12193257;19;20506;-90
2022/11/11 02:36:48;;;;;;;2.92;1.67;;;13.60;57.20;;;12.54;58.26;102493.13;12192640;19;20271;-89
2022/11/11 02:45:46;;;;;;;3.67;1.58;;;13.50;57.20;;;12.56;58.26;102512.28;12195678;19;20022;-89
2022/11/11 02:50:08;;;;;;;5.15;2.00;;;13.50;57.30;;;12.56;58.43;102512.28;12190021;19;20019;-90
2022/11/11 02:54:28;;;;;;;3.47;2.03;;;13.50;57.30;;;12.44;58.22;102486.50;12184444;19;20045;-90
2022/11/11 02:58:49;;;;;;;2.35;1.70;;;13.50;57.30;;;12.54;58.33;102504.47;12185206;19;20351;-90
2022/11/11 03:03:10;;;;;;;4.07;1.63;;;13.50;57.30;;;12.43;58.41;102474.31;12190838;19;20038;-90
2022/11/11 03:07:30;;;;;;;2.50;1.40;;;13.50;57.30;;;12.35;58.24;102479.81;12195349;19;20022;-90
2022/11/11 03:11:50;;;;;;;1.83;1.63;;;13.50;57.30;;;12.26;58.31;102465.28;12188880;19;20941;-90
2022/11/11 03:17:38;;;;;;;3.17;1.70;;;13.40;57.30;;;12.43;58.41;102497.91;12190687;19;20015;-91
2022/11/11 03:21:06;;;;;;;1.98;1.55;;;13.40;57.30;;;12.33;58.34;102479.84;12188337;19;20019;-88
2022/11/11 03:25:39;;;;;;;3.47;1.95;;;13.40;57.70;;;12.33;58.52;102482.47;12191572;19;20054;-90
2022/11/11 03:29:59;;;;;;;2.75;1.40;;;13.40;57.30;;;12.30;58.42;102472.09;12192134;19;20026;-90
2022/11/11 03:34:20;;;;;;;2.60;1.88;;;13.40;57.30;;;12.18;58.48;102469.91;12191363;19;20078;-90
2022/11/11 03:38:40;;;;;;;1.77;1.30;;;13.40;57.30;;;12.40;58.33;102483.13;12192995;19;20019;-90
2022/11/11 03:43:00;;;;;;;3.80;2.03;;;13.30;57.30;;;12.14;58.40;102445.56;12187599;19;20018;-90
2022/11/11 03:47:21;;;;;;;3.95;2.08;;;13.30;57.40;;;12.17;58.39;102447.22;12194629;19;20010;-90
2022/11/11 03:51:41;;;;;;;2.60;1.55;;;13.30;57.40;;;12.24;58.30;102447.91;12193428;19;20364;-90
2022/11/11 03:56:01;;;;;;;4.70;1.70;;;13.30;57.40;;;11.84;58.49;102387.22;12190030;19;20014;-89
2022/11/11 04:00:25;;;;;;;2.85;1.60;;;13.30;57.40;;;12.26;58.55;102446.94;12191809;19;20010;-91
2022/11/11 04:23:27;;;;;;;2.97;1.92;;;13.10;57.40;;;12.03;58.54;102436.38;12174695;19;20861;-87
2022/11/11 04:29:27;;;;;;;1.85;1.40;;;13.10;57.50;;;12.01;58.47;102440.81;12172299;19;20063;-86
2022/11/11 04:32:41;;;;;;;2.85;1.95;;;13.10;57.50;;;12.03;58.62;102444.25;12172541;19;20015;-87
2022/11/11 04:37:02;;;;;;;3.80;1.75;;;13.10;57.60;;;12.06;58.54;102442.34;12171371;19;20101;-87
2022/11/11 04:41:22;;;;;;;2.53;1.67;;;13.10;57.60;;;12.12;58.71;102465.75;12166535;19;20015;-86
2022/11/11 04:45:42;;;;;;;4.70;2.30;;;13.10;57.60;;;11.97;58.64;102441.84;12167696;19;20019;-86
2022/11/11 04:50:04;;;;;;;3.40;1.58;;;13.10;57.60;;;12.10;58.52;102466.69;12167962;19;20014;-87
2022/11/11 04:54:24;;;;;;;4.10;2.00;;;13.10;57.60;;;11.95;58.54;102442.72;12170512;19;20403;-87
2022/11/11 04:58:45;;;;;;;7.13;2.03;;;13.10;57.70;;;11.97;58.66;102447.91;12170833;19;20006;-86
2022/11/11 05:03:15;;;;;;;4.07;1.80;;;13.10;57.70;;;12.01;58.80;102459.13;12174078;19;20019;-87
2022/11/11 05:12:21;;;;;;;2.10;1.90;;;13.10;57.70;;;11.83;58.59;102437.03;12179822;19;20117;-87
2022/11/11 05:21:31;;;;;;;2.08;1.50;;;13.10;57.70;;;11.92;58.70;102455.91;12186452;19;20018;-87
2022/11/11 05:25:51;;;;;;;3.17;1.67;;;13.10;57.70;;;12.00;58.83;102468.75;12178962;19;20019;-87
2022/11/11 05:30:14;;;;;;;3.72;1.77;;;13.00;57.70;;;11.91;58.82;102462.06;12182738;19;21090;-87
2022/11/11 05:34:34;;;;;;;2.35;1.38;;;13.00;57.70;;;12.03;58.76;102486.97;12179860;19;20097;-87
2022/11/11 05:38:55;;;;;;;5.20;1.50;;;13.00;58.10;;;11.97;58.81;102484.56;12189483;19;20014;-87
2022/11/11 05:43:15;;;;;;;1.55;1.45;;;13.00;57.70;;;12.07;58.84;102506.94;12190397;19;20019;-87
2022/11/11 05:47:35;;;;;;;2.65;1.50;;;13.00;57.70;;;12.04;58.77;102522.72;12194013;19;20125;-87
2022/11/11 05:51:56;;;;;;;2.80;1.52;;;13.10;57.70;;;11.86;58.92;102500.63;12194307;19;21013;-87
2022/11/11 05:56:16;;;;;;;3.75;1.60;;;13.00;57.60;;;11.99;58.96;102511.56;12192431;19;20414;-86
2022/11/11 06:00:36;;;;;;;7.57;1.75;;;13.10;57.70;;;11.85;58.77;102479.69;12193431;19;20447;-88
2022/11/11 06:04:57;;;;;;;3.85;2.55;;;13.10;57.60;;;11.86;58.81;102495.41;12193678;19;21328;-87
2022/11/11 06:09:18;;;;;;;3.40;1.60;;;13.10;57.60;;;12.09;58.92;102539.16;12194625;19;20601;-88
2022/11/11 06:13:38;;;;;;;5.53;2.15;;;13.10;57.60;;;11.97;58.75;102512.53;12193030;19;20379;-86
2022/11/11 06:17:59;;;;;;;3.22;1.95;;;13.10;57.60;;;12.09;58.98;102546.16;12190716;19;20014;-87
2022/11/11 06:22:54;;;;;;;3.50;1.55;;;13.10;57.60;;;11.99;58.80;102523.78;12193094;19;20062;-87
2022/11/11 06:27:00;;;;;;;3.17;1.73;;;13.30;57.70;;;11.89;58.87;102503.16;12192040;19;20023;-87
2022/11/11 06:31:25;;;;;;;4.70;2.13;;;13.10;57.60;;;11.95;58.79;102531.75;12163413;19;20022;-86
2022/11/11 06:35:47;;;;;;;3.13;1.58;;;13.00;57.60;;;11.90;58.93;102524.94;12160086;19;20759;-87
2022/11/11 06:40:08;;;;;;;3.15;1.73;;;13.00;57.70;;;11.92;58.93;102539.69;12170375;19;20574;-86
2022/11/11 06:44:29;;;;;;;3.92;1.75;;;13.00;57.70;;;11.95;58.77;102550.06;12171400;19;20018;-88
2022/11/11 06:48:50;;;;;;;2.80;1.70;;;13.00;57.80;;;11.89;58.86;102525.84;12171023;19;20019;-87
2022/11/11 06:53:13;;;;;;;2.60;1.70;;;13.00;57.70;;;11.95;58.81;102543.97;12167403;19;20010;-86
2022/11/11 06:57:34;;;;;;;3.97;2.63;;;13.00;57.80;;;11.97;59.00;102546.56;12169967;19;20014;-86
2022/11/11 07:01:54;;;;;;;6.07;1.73;;;12.90;57.80;;;11.94;58.99;102534.41;12172084;19;20299;-87
2022/11/11 07:06:14;;;;;;;3.67;1.88;;;13.00;57.80;;;11.84;58.89;102515.47;12173374;19;20494;-88
2022/11/11 07:10:38;;;;;;;3.03;1.80;;;12.90;57.80;;;11.87;59.03;102523.28;12175734;19;20483;-88
2022/11/11 07:14:58;;;;;;;2.55;1.65;;;13.20;57.90;;;11.90;59.08;102532.78;12172272;19;20018;-87
2022/11/11 07:19:19;;;;;;;3.60;2.00;;;12.90;57.80;;;11.94;59.07;102550.97;12175708;19;20903;-88
2022/11/11 07:23:39;;;;;;;2.33;1.63;;;12.90;57.90;;;11.84;59.11;102532.97;12172010;19;20015;-88
2022/11/11 07:28:00;;;;;;;2.42;2.00;;;13.00;58.00;;;11.81;59.03;102531.28;12170806;19;20480;-88
2022/11/11 07:32:20;;;;;;;3.92;1.65;;;13.00;57.90;;;11.94;59.07;102535.28;12174596;19;20014;-88
2022/11/11 07:36:40;;;;;;;2.47;1.90;;;13.00;58.00;;;11.97;59.22;102547.41;12171442;19;20011;-88
2022/11/11 07:41:01;;;;;;;3.13;1.92;;;13.00;57.90;;;11.90;59.10;102533.63;12165188;19;20256;-88
2022/11/11 07:45:21;;;;;;;4.20;1.88;;;13.00;57.90;;;11.92;59.15;102542.31;12162834;19;20024;-87
2022/11/11 07:49:42;;;;;;;2.45;1.77;;;13.00;58.00;;;11.75;59.17;102521.03;12180492;19;20125;-88
2022/11/11 07:54:02;;;;;;;4.68;1.92;;;13.00;58.00;;;11.98;59.21;102556.97;12174826;19;20330;-88
2022/11/11 07:58:22;;;;;;;2.58;1.80;;;13.10;58.10;;;12.03;59.20;102570.78;12174040;19;20015;-87
2022/11/11 08:02:48;;;;;;;3.20;1.83;;;13.00;58.00;;;11.94;59.33;102571.06;12168432;19;20851;-88
2022/11/11 08:07:08;;;;;;;3.05;2.33;;;13.00;58.00;;;12.01;59.35;102574.34;12170720;19;20019;-88
2022/11/11 08:16:13;;;;;;;4.60;2.08;;;13.10;58.10;;;12.08;59.21;102592.44;12161823;19;20355;-87
2022/11/11 08:20:37;;;;;;;2.40;2.00;;;13.10;58.00;;;12.13;59.15;102593.16;12165462;19;20022;-87
2022/11/11 08:24:57;;;;;;;8.35;1.65;;;13.20;58.10;;;12.11;59.32;102586.25;12160721;19;20014;-88
2022/11/11 08:29:23;;;;;;;2.15;1.95;;;13.20;58.10;;;11.92;59.34;102562.41;12162874;19;20018;-88
2022/11/11 08:33:44;;;;;;;2.70;1.83;;;13.30;58.10;;;12.26;59.38;102625.06;12164452;19;20082;-88
2022/11/11 08:38:05;;;;;;;1.70;1.52;;;13.30;58.10;;;12.22;59.31;102606.84;12164314;19;20105;-88
2022/11/11 08:42:26;;;;;;;2.92;1.73;;;13.30;58.00;;;12.15;59.47;102604.44;12160129;19;20018;-87
2022/11/11 08:46:47;;;;;;;3.78;2.03;;;13.40;58.00;;;12.27;59.35;102589.25;12162190;19;20010;-87
2022/11/11 08:51:07;;;;;;;2.83;1.70;;;13.50;58.00;;;12.40;59.31;102622.00;12174802;19;20446;-88
2022/11/11 08:55:27;;;;;;;2.40;1.73;;;13.50;58.00;;;12.45;59.40;102624.44;12171205;19;20010;-88
2022/11/11 08:59:48;;;;;;;3.03;1.73;;;13.50;58.30;;;12.51;59.32;102637.38;12178744;19;20019;-88
2022/11/11 09:04:08;;;;;;;3.63;1.70;;;13.60;58.00;;;12.57;59.40;102639.78;12173622;19;20023;-87
2022/11/11 09:08:29;;;;;;;3.70;1.50;;;13.70;57.90;;;12.48;59.41;102611.28;12174360;19;20019;-87
2022/11/11 09:12:57;;;;;;;3.35;1.98;;;13.70;57.90;;;12.59;59.43;102620.47;12184663;19;20011;-87
2022/11/11 09:17:17;;;;;;;4.45;1.85;;;13.80;57.90;;;12.88;59.47;102650.13;12186609;19;20910;-87
2022/11/11 09:21:38;;;;;;;2.60;1.50;;;13.90;57.90;;;12.85;59.47;102642.31;12189390;19;20359;-86
2022/11/11 09:26:05;;;;;;;2.45;1.27;;;14.00;57.90;;;13.11;59.33;102665.03;12193137;19;20014;-87
2022/11/11 09:30:27;;;;;;;4.05;1.70;;;14.10;57.90;;;13.13;59.53;102644.88;12172822;19;20034;-86
2022/11/11 09:34:48;;;;;;;1.50;1.40;;;14.30;57.90;;;13.13;59.62;102630.91;12174458;19;20010;-87
2022/11/11 09:39:09;;;;;;;2.42;1.48;;;14.50;57.80;;;13.41;59.52;102649.16;12174315;19;20022;-86
2022/11/11 09:43:45;;;;;;;4.07;1.67;;;14.80;57.80;;;13.62;59.45;102682.50;12169924;19;20014;-87
2022/11/11 09:48:37;;;;;;;1.93;1.30;;;14.80;57.60;;;13.75;59.45;102674.19;12171100;19;20022;-87
2022/11/11 09:53:10;;;;;;;2.42;1.10;;;14.90;57.40;;;13.85;59.45;102689.56;12173685;19;20598;-88
2022/11/11 09:57:58;;;;;;;1.75;1.20;;;15.00;57.10;;;13.76;59.29;102674.13;12175407;19;20026;-87
2022/11/11 10:02:44;;;;;;;2.30;1.38;;;15.10;57.00;;;14.00;59.29;102705.63;12170511;19;20318;-88
2022/11/11 10:07:13;;;;;;;3.35;1.15;;;15.20;56.80;;;13.86;59.38;102672.00;12166936;19;20371;-86
2022/11/11 10:11:33;;;;;;;1.58;1.20;;;15.20;56.70;;;14.14;59.23;102701.56;12149420;19;20014;-86
2022/11/11 10:16:25;;;;;;;2.40;1.13;;;15.30;56.70;;;14.12;59.20;102698.16;12161388;19;20015;-87
2022/11/11 10:20:53;;;;;;;1.58;0.95;;;15.40;56.80;;;14.22;59.16;102692.53;12168359;19;20010;-87
2022/11/11 10:25:23;;;;;;;1.88;1.30;;;15.40;56.50;;;14.26;58.99;102694.13;12166561;19;20410;-86
2022/11/11 10:29:45;;;;;;;1.95;1.13;;;15.50;56.50;;;14.28;59.20;102682.63;12171297;19;20023;-87
2022/11/11 10:34:11;;;;;;;6.47;3.78;;;15.50;56.50;;;14.27;58.97;102666.94;12159835;19;20022;-86
2022/11/11 10:38:54;;;;;;;3.58;2.50;;;15.50;56.40;;;14.39;59.07;102679.56;12168829;19;20023;-87
2022/11/11 10:43:27;;;;;;;3.05;1.83;;;15.60;56.50;;;14.38;58.90;102669.97;12162665;19;20383;-87
2022/11/11 10:48:29;;;;;;;1.90;1.60;;;15.60;56.50;;;14.43;58.96;102672.44;12165739;19;20018;-86
2022/11/11 10:53:12;;;;;;;1.85;1.33;;;15.70;56.40;;;14.53;58.84;102679.91;12161897;19;20443;-87
2022/11/11 10:57:48;;;;;;;2.05;1.23;;;15.70;56.20;;;14.60;58.88;102676.09;12168418;19;20018;-86
2022/11/11 11:02:32;;;;;;;2.33;1.23;;;15.70;56.30;;;14.61;58.80;102663.84;12156641;19;20379;-86
2022/11/11 11:06:57;;;;;;;3.05;1.40;;;15.80;56.20;;;14.63;58.78;102645.34;12168437;19;20022;-86
2022/11/11 11:11:39;;;;;;;2.05;1.10;;;15.90;56.30;;;14.80;58.88;102662.16;12165763;19;20018;-87
2022/11/11 11:16:11;;;;;;;2.30;1.30;;;15.90;56.10;;;14.82;58.86;102649.78;12167502;19;20070;-87
2022/11/11 11:20:31;;;;;;;2.85;1.27;;;16.00;55.80;;;14.89;58.64;102637.22;12168708;19;20499;-87
2022/11/11 11:25:10;;;;;;;1.60;1.00;;;16.10;55.90;;;14.87;58.65;102625.91;12167209;19;20014;-86
2022/11/11 11:29:43;;;;;;;1.33;1.20;;;16.10;55.80;;;14.98;58.55;102649.13;12167521;19;20014;-87
2022/11/11 11:34:04;;;;;;;2.75;1.30;;;16.20;55.60;;;14.90;58.52;102630.19;12166461;19;20023;-87
2022/11/11 11:38:46;;;;;;;3.80;1.23;;;16.20;55.70;;;15.07;58.51;102634.72;12166016;19;20114;-87
2022/11/11 11:43:46;;;;;;;2.15;1.30;;;16.20;55.60;;;15.08;58.47;102628.53;12165924;19;21084;-89
2022/11/11 11:48:55;;;;;;;2.08;1.40;;;16.30;55.60;;;15.12;58.48;102622.22;12169492;19;20019;-86
2022/11/11 11:53:55;;;;;;;3.92;1.40;;;16.20;55.60;;;15.00;58.46;102598.16;12166777;19;20010;-87
2022/11/11 11:58:34;;;;;;;2.95;1.05;;;16.30;55.60;;;15.16;58.37;102626.44;12166663;19;20835;-87
2022/11/11 12:03:01;;;;;;;1.65;1.15;;;16.30;55.50;;;15.21;58.24;102640.25;12165308;19;20887;-86
2022/11/11 12:07:51;;;;;;;2.15;1.40;;;16.50;55.70;;;15.20;58.18;102634.13;12165047;19;20653;-87
2022/11/11 12:12:50;;;;;;;1.83;1.27;;;16.50;55.50;;;15.21;58.06;102634.97;12165853;19;20367;-87
2022/11/11 12:17:45;;;;;;;1.58;1.20;;;16.30;55.30;;;15.11;58.06;102612.63;12160045;19;20011;-87
2022/11/11 12:22:50;;;;;;;1.20;1.08;;;16.40;55.50;;;15.24;58.08;102629.56;12159225;19;20015;-87
2022/11/11 12:27:45;;;;;;;2.88;1.10;;;16.30;55.30;;;15.23;58.08;102623.47;12165012;19;20018;-86
2022/11/11 12:32:41;;;;;;;1.90;1.00;;;16.30;55.40;;;15.18;57.90;102621.97;12170240;19;20434;-86
2022/11/11 12:37:35;;;;;;;1.75;1.63;;;16.30;55.30;;;15.25;57.99;102626.00;12163939;19;20391;-85
2022/11/11 12:42:27;;;;;;;1.80;1.08;;;16.30;55.30;;;15.27;58.03;102635.53;12158532;19;20433;-85
2022/11/11 12:47:26;;;;;;;1.20;1.10;;;16.30;55.40;;;15.27;57.87;102627.66;12157807;19;20311;-85
2022/11/11 12:52:23;;;;;;;1.58;1.02;;;16.30;55.40;;;15.29;57.84;102626.75;12167204;19;20883;-86
2022/11/11 12:57:03;;;;;;;4.65;2.50;;;16.30;55.30;;;15.31;57.91;102636.28;12163125;19;20022;-88
2022/11/11 13:01:43;;;;;;;1.83;1.10;;;16.30;55.40;;;15.34;57.81;102630.88;12168706;19;20014;-88
2022/11/11 13:12:08;;;;;;;1.10;1.00;;;16.40;55.30;;;15.23;57.81;102606.81;12192110;19;20015;-91
2022/11/11 13:16:28;;;;;;;1.33;1.23;;;16.40;55.40;;;15.33;58.02;102623.88;12210019;19;20019;-93
2022/11/11 13:21:00;;;;;;;4.10;1.40;;;16.40;55.40;;;15.38;57.79;102621.06;12198854;19;20550;-90
2022/11/11 13:25:37;;;;;;;1.90;1.20;;;16.40;55.50;;;15.17;57.75;102584.22;12194351;19;20551;-90
2022/11/11 13:31:11;;;;;;;1.45;1.00;;;16.50;55.40;;;14.77;57.69;102515.00;12210710;19;20027;-90
2022/11/11 13:36:00;;;;;;;1.70;1.20;;;16.50;55.30;;;15.00;57.42;102542.91;12185720;19;20014;-92
2022/11/11 13:40:50;;;;;;;1.98;1.10;;;16.50;55.30;;;14.86;57.72;102519.00;12192090;19;20022;-92
2022/11/11 13:45:33;;;;;;;1.58;1.02;;;16.50;55.40;;;15.40;57.46;102609.53;12188485;19;20010;-92
2022/11/11 13:50:04;;;;;;;1.58;1.48;;;16.50;55.30;;;14.93;57.64;102533.59;12199765;19;20018;-92
2022/11/11 13:55:02;;;;;;;3.15;1.25;;;16.50;55.40;;;14.99;57.66;102546.47;12203909;19;20030;-91
2022/11/11 13:59:41;;;;;;;1.50;1.40;;;16.30;55.30;;;15.07;57.47;102553.13;12200751;19;20489;-91
2022/11/11 14:04:15;;;;;;;1.60;1.50;;;16.50;55.40;;;14.96;57.55;102530.81;12200418;19;20010;-92
2022/11/11 14:08:49;;;;;;;3.15;1.50;;;16.50;55.50;;;15.45;57.42;102623.34;12199489;19;20010;-91
2022/11/11 14:13:22;;;;;;;3.92;1.10;;;16.50;55.50;;;15.45;57.50;102628.63;12203147;19;20014;-91
2022/11/11 14:17:44;;;;;;;2.78;1.35;;;16.40;55.40;;;15.06;57.53;102560.19;12197492;19;20868;-91
2022/11/11 14:22:39;;;;;;;2.67;0.88;;;16.50;55.50;;;15.01;57.29;102559.53;12186478;19;20316;-91
2022/11/11 14:27:10;;;;;;;1.08;1.02;;;16.40;55.60;;;15.42;57.37;102628.75;12186231;19;20030;-90
2022/11/11 14:32:11;;;;;;;4.22;1.23;;;16.40;55.40;;;14.86;57.44;102540.03;12192259;19;20018;-92
2022/11/11 14:36:41;;;;;;;2.08;1.20;;;16.40;55.40;;;15.40;57.37;102625.34;12187855;19;20023;-91
2022/11/11 14:41:45;;;;;;;1.30;1.20;;;16.40;55.40;;;15.01;57.49;102586.72;12191213;19;20685;-91
2022/11/11 14:46:10;;;;;;;2.05;1.55;;;16.40;55.50;;;14.71;57.27;102531.03;12184372;19;20018;-91
2022/11/11 14:50:31;;;;;;;3.25;1.20;;;16.30;55.50;;;15.36;57.32;102636.91;12192074;19;20019;-91
2022/11/11 14:55:00;;;;;;;1.48;1.17;;;16.40;55.60;;;15.34;57.35;102644.03;12186564;19;20809;-91
2022/11/11 14:59:26;;;;;;;1.23;1.10;;;16.30;55.50;;;14.95;57.12;102586.13;12185883;19;20456;-91
2022/11/11 15:03:52;;;;;;;2.10;1.42;;;16.30;55.50;;;14.62;57.36;102530.59;12179306;19;20022;-91
2022/11/11 15:08:33;;;;;;;2.80;1.33;;;16.30;55.60;;;14.86;57.21;102583.91;12188455;19;20022;-93
2022/11/11 15:14:08;;;;;;;;;;;;;;;;;;;;;
2022/11/11 15:19:22;;;;;;;1.40;1.30;;;16.30;55.50;;;15.16;57.26;102648.34;12179120;19;20022;-93
2022/11/11 15:24:19;;;;;;;2.90;1.52;;;16.20;55.60;;;14.66;57.16;102563.69;12179250;19;20010;-92
2022/11/11 15:29:26;;;;;;;;;;;;;;;;;;;;;
2022/11/11 15:33:55;;;;;;;3.35;1.90;;;16.10;55.50;;;15.11;57.30;102654.72;12180727;19;20018;-91
2022/11/11 15:38:28;;;;;;;;;;;;;;;;;;;;;
2022/11/11 15:43:07;;;;;;;2.70;1.67;;;16.00;55.60;;;15.00;57.28;102648.13;12173472;19;20288;-90
2022/11/11 15:47:28;;;;;;;2.70;1.90;;;16.00;55.60;;;14.71;57.30;102607.28;12179172;19;20388;-91
2022/11/11 15:51:55;;;;;;;4.22;1.95;;;16.00;55.60;;;14.43;57.17;102570.75;12176848;19;20019;-92
2022/11/11 15:56:32;;;;;;;4.20;2.30;;;15.90;55.60;;;14.15;57.26;102540.38;12161586;19;20022;-92
2022/11/11 16:01:05;;;;;;;;;;;;;;;;;;;;;
2022/11/11 16:05:30;;;;;;;3.22;2.10;;;15.80;55.60;;;14.46;57.29;102603.97;12169593;19;20039;-90
2022/11/11 16:09:57;;;;;;;4.82;2.42;;;15.70;55.60;;;14.36;57.21;102595.59;12171259;19;21504;-90
2022/11/11 16:14:39;;;;;;;3.83;2.88;;;15.70;55.70;;;14.62;57.17;102657.66;12175189;19;20022;-90
2022/11/11 16:19:17;;;;;;;3.83;3.08;;;15.60;55.60;;;14.22;57.15;102592.66;12173959;19;20470;-89
2022/11/11 16:24:00;;;;;;;;;;;;;;;;;;;;;
2022/11/11 16:28:24;;;;;;;4.88;3.50;;;15.50;55.70;;;14.33;56.85;102640.41;12174606;19;20836;-91
2022/11/11 16:32:48;;;;;;;5.10;4.10;;;15.50;55.50;;;14.12;57.03;102626.31;12176125;19;20384;-91
2022/11/11 16:37:15;;;;;;;4.63;4.10;;;15.40;55.50;;;13.88;57.05;102594.00;12175236;19;20019;-90
2022/11/11 16:41:50;;;;;;;;;;;;;;;;;;;;;
2022/11/11 16:46:35;;;;;;;5.33;3.60;;;15.30;55.60;;;14.08;57.11;102644.00;12174673;19;20788;-89
2022/11/11 16:51:13;;;;;;;6.13;4.93;;;15.20;55.60;;;13.84;57.09;102627.41;12176326;19;20647;-90
2022/11/11 16:55:55;;;;;;;;;;;;;;;;;;;;;
2022/11/11 17:00:38;;;;;;;;;;;;;;;;;;;;;
2022/11/11 17:05:20;;;;;;;7.78;5.75;;;15.00;55.60;;;13.88;57.05;102672.78;12169303;19;20288;-90
2022/11/11 17:10:04;;;;;;;10.20;4.85;;;14.90;55.60;;;13.52;57.16;102610.25;12171064;19;20022;-90
2022/11/11 17:14:51;;;;;;;6.95;4.50;;;14.80;55.70;;;13.66;57.21;102657.88;12170988;19;20018;-91
2022/11/11 17:19:21;;;;;;;9.40;3.97;;;14.80;55.70;;;13.21;57.03;102590.38;12171842;19;20011;-91
2022/11/11 17:23:45;;;;;;;4.78;3.65;;;14.70;55.80;;;13.73;57.00;102687.38;12164194;19;20374;-91
2022/11/11 17:28:18;;;;;;;4.88;3.67;;;14.60;55.80;;;13.14;57.14;102609.84;12169417;19;20007;-91
2022/11/11 17:33:08;;;;;;;8.32;3.85;;;14.50;55.70;;;13.17;57.04;102629.88;12172802;19;20019;-90
2022/11/11 17:37:40;;;;;;;3.63;3.28;;;14.50;55.80;;;13.08;56.94;102617.94;12168430;19;20022;-91
2022/11/11 17:42:19;;;;;;;;;;;;;;;;;;;;;
2022/11/11 17:47:31;;;;;;;;;;;;;;;;;;;;;
2022/11/11 17:51:59;;;;;;;5.27;2.13;;;14.30;55.70;;;12.83;57.21;102631.06;12169724;19;20019;-91
2022/11/11 17:56:29;;;;;;;;;;;;;;;;;;;;;
2022/11/11 18:01:47;;;;;;;;;;;;;;;;;;;;;
2022/11/11 18:07:01;;;;;;;3.95;2.50;;;13.90;55.70;;;13.10;57.21;102701.84;12159458;19;20018;-91
2022/11/11 18:18:06;;;;;;;;;;;;;;;;;;;;;
2022/11/11 18:23:04;;;;;;;;;;;;;;;;;;;;;
2022/11/11 18:27:45;;;;;;;;;;;;;;;;;;;;;
2022/11/11 18:32:15;;;;;;;;;;;;;;;;;;;;;
2022/11/11 18:36:40;;;;;;;5.22;4.25;;;13.80;56.00;;;12.12;57.22;102598.44;12177092;19;20030;-91
2022/11/11 18:41:26;;;;;;;;;;;;;;;;;;;;;
2022/11/11 23:59:16;;;;;;;4.27;3.63;;;10.80;56.00;;;9.26;57.66;102748.13;12180766;19;20355;-87
